sensor_id;sensor_type;location;lat;lon;timestamp;P1;durP1;ratioP1;P2;durP2;ratioP2
81396;SDS011;70852;49.908;8.126;2023-10-08T00:02:03;5.82;;;2.08;;
81396;SDS011;70852;49.908;8.126;2023-10-08T00:04:31;4.20;;;2.20;;
81396;SDS011;70852;49.908;8.126;2023-10-08T00:07:02;5.85;;;2.22;;
81396;SDS011;70852;49.908;8.126;2023-10-08T00:09:34;6.18;;;2.30;;
81396;SDS011;70852;49.908;8.126;2023-10-08T00:12:05;5.88;;;2.47;;
81396;SDS011;70852;49.908;8.126;2023-10-08T00:14:35;5.82;;;2.13;;
81396;SDS011;70852;49.908;8.126;2023-10-08T00:17:10;5.38;;;2.22;;
81396;SDS011;70852;49.908;8.126;2023-10-08T00:19:36;4.47;;;2.10;;
81396;SDS011;70852;49.908;8.126;2023-10-08T00:22:03;4.40;;;2.25;;
81396;SDS011;70852;49.908;8.126;2023-10-08T00:24:31;4.00;;;1.90;;
81396;SDS011;70852;49.908;8.126;2023-10-08T00:26:58;5.10;;;2.05;;
81396;SDS011;70852;49.908;8.126;2023-10-08T00:29:25;7.07;;;2.58;;
81396;SDS011;70852;49.908;8.126;2023-10-08T00:31:54;6.38;;;2.25;;
81396;SDS011;70852;49.908;8.126;2023-10-08T00:34:22;7.13;;;2.50;;
81396;SDS011;70852;49.908;8.126;2023-10-08T00:36:49;7.95;;;2.38;;
81396;SDS011;70852;49.908;8.126;2023-10-08T00:39:15;5.53;;;2.00;;
81396;SDS011;70852;49.908;8.126;2023-10-08T00:41:50;4.78;;;2.20;;
81396;SDS011;70852;49.908;8.126;2023-10-08T00:44:19;6.75;;;2.42;;
81396;SDS011;70852;49.908;8.126;2023-10-08T00:46:51;6.53;;;2.42;;
81396;SDS011;70852;49.908;8.126;2023-10-08T00:49:19;7.45;;;2.28;;
81396;SDS011;70852;49.908;8.126;2023-10-08T00:51:47;7.35;;;2.03;;
81396;SDS011;70852;49.908;8.126;2023-10-08T00:54:18;5.60;;;2.25;;
81396;SDS011;70852;49.908;8.126;2023-10-08T00:56:45;6.30;;;2.22;;
81396;SDS011;70852;49.908;8.126;2023-10-08T00:59:29;5.15;;;2.40;;
81396;SDS011;70852;49.908;8.126;2023-10-08T01:01:58;6.40;;;2.40;;
81396;SDS011;70852;49.908;8.126;2023-10-08T01:04:24;4.68;;;2.15;;
81396;SDS011;70852;49.908;8.126;2023-10-08T01:06:58;5.38;;;2.20;;
81396;SDS011;70852;49.908;8.126;2023-10-08T01:09:25;6.15;;;2.50;;
81396;SDS011;70852;49.908;8.126;2023-10-08T01:12:09;4.82;;;2.25;;
81396;SDS011;70852;49.908;8.126;2023-10-08T01:14:43;6.57;;;2.20;;
81396;SDS011;70852;49.908;8.126;2023-10-08T01:17:14;6.68;;;2.60;;
81396;SDS011;70852;49.908;8.126;2023-10-08T01:19:44;4.88;;;2.30;;
81396;SDS011;70852;49.908;8.126;2023-10-08T01:22:21;6.55;;;2.40;;
81396;SDS011;70852;49.908;8.126;2023-10-08T01:24:50;4.35;;;2.13;;
81396;SDS011;70852;49.908;8.126;2023-10-08T01:27:17;7.30;;;2.40;;
81396;SDS011;70852;49.908;8.126;2023-10-08T01:29:50;7.15;;;2.40;;
81396;SDS011;70852;49.908;8.126;2023-10-08T01:32:17;5.80;;;2.55;;
81396;SDS011;70852;49.908;8.126;2023-10-08T01:34:43;4.72;;;2.17;;
81396;SDS011;70852;49.908;8.126;2023-10-08T01:37:15;4.75;;;2.10;;
81396;SDS011;70852;49.908;8.126;2023-10-08T01:39:44;7.07;;;2.50;;
81396;SDS011;70852;49.908;8.126;2023-10-08T01:42:10;4.78;;;2.00;;
81396;SDS011;70852;49.908;8.126;2023-10-08T01:44:43;5.55;;;2.33;;
81396;SDS011;70852;49.908;8.126;2023-10-08T01:47:11;5.53;;;2.20;;
81396;SDS011;70852;49.908;8.126;2023-10-08T01:49:36;7.03;;;2.83;;
81396;SDS011;70852;49.908;8.126;2023-10-08T01:52:04;4.82;;;2.13;;
81396;SDS011;70852;49.908;8.126;2023-10-08T01:54:37;5.50;;;2.45;;
81396;SDS011;70852;49.908;8.126;2023-10-08T01:57:03;6.53;;;2.25;;
81396;SDS011;70852;49.908;8.126;2023-10-08T01:59:31;9.48;;;2.45;;
81396;SDS011;70852;49.908;8.126;2023-10-08T02:01:56;5.75;;;2.45;;
81396;SDS011;70852;49.908;8.126;2023-10-08T02:04:22;5.28;;;2.03;;
81396;SDS011;70852;49.908;8.126;2023-10-08T02:06:47;6.18;;;2.40;;
81396;SDS011;70852;49.908;8.126;2023-10-08T02:09:13;4.57;;;2.20;;
81396;SDS011;70852;49.908;8.126;2023-10-08T02:11:41;6.07;;;2.30;;
81396;SDS011;70852;49.908;8.126;2023-10-08T02:14:10;6.53;;;2.47;;
81396;SDS011;70852;49.908;8.126;2023-10-08T02:16:37;5.57;;;2.05;;
81396;SDS011;70852;49.908;8.126;2023-10-08T02:19:06;5.20;;;2.33;;
81396;SDS011;70852;49.908;8.126;2023-10-08T02:21:35;7.28;;;2.20;;
81396;SDS011;70852;49.908;8.126;2023-10-08T02:24:03;5.57;;;2.03;;
81396;SDS011;70852;49.908;8.126;2023-10-08T02:26:29;6.30;;;2.13;;
81396;SDS011;70852;49.908;8.126;2023-10-08T02:28:54;6.18;;;2.33;;
81396;SDS011;70852;49.908;8.126;2023-10-08T02:31:19;7.68;;;2.92;;
81396;SDS011;70852;49.908;8.126;2023-10-08T02:33:47;5.75;;;2.35;;
81396;SDS011;70852;49.908;8.126;2023-10-08T02:36:14;7.40;;;2.30;;
81396;SDS011;70852;49.908;8.126;2023-10-08T02:38:39;6.53;;;2.30;;
81396;SDS011;70852;49.908;8.126;2023-10-08T02:41:04;6.32;;;2.25;;
81396;SDS011;70852;49.908;8.126;2023-10-08T02:43:33;5.97;;;2.63;;
81396;SDS011;70852;49.908;8.126;2023-10-08T02:46:01;5.85;;;2.53;;
81396;SDS011;70852;49.908;8.126;2023-10-08T02:48:32;8.70;;;2.35;;
81396;SDS011;70852;49.908;8.126;2023-10-08T02:50:59;6.72;;;2.20;;
81396;SDS011;70852;49.908;8.126;2023-10-08T02:53:38;5.72;;;2.30;;
81396;SDS011;70852;49.908;8.126;2023-10-08T02:56:06;6.07;;;2.03;;
81396;SDS011;70852;49.908;8.126;2023-10-08T02:58:37;5.80;;;2.33;;
81396;SDS011;70852;49.908;8.126;2023-10-08T03:01:04;4.57;;;2.28;;
81396;SDS011;70852;49.908;8.126;2023-10-08T03:03:29;6.15;;;2.70;;
81396;SDS011;70852;49.908;8.126;2023-10-08T03:05:54;5.97;;;2.13;;
81396;SDS011;70852;49.908;8.126;2023-10-08T03:08:22;5.80;;;2.13;;
81396;SDS011;70852;49.908;8.126;2023-10-08T03:10:48;5.95;;;2.60;;
81396;SDS011;70852;49.908;8.126;2023-10-08T03:13:17;5.47;;;2.55;;
81396;SDS011;70852;49.908;8.126;2023-10-08T03:15:45;4.25;;;1.88;;
81396;SDS011;70852;49.908;8.126;2023-10-08T03:18:25;7.18;;;2.33;;
81396;SDS011;70852;49.908;8.126;2023-10-08T03:20:59;4.78;;;2.20;;
81396;SDS011;70852;49.908;8.126;2023-10-08T03:23:30;8.20;;;2.40;;
81396;SDS011;70852;49.908;8.126;2023-10-08T03:26:01;7.10;;;2.75;;
81396;SDS011;70852;49.908;8.126;2023-10-08T03:28:49;7.00;;;2.33;;
81396;SDS011;70852;49.908;8.126;2023-10-08T03:31:22;5.20;;;2.30;;
81396;SDS011;70852;49.908;8.126;2023-10-08T03:33:59;5.78;;;2.38;;
81396;SDS011;70852;49.908;8.126;2023-10-08T03:36:24;6.63;;;2.20;;
81396;SDS011;70852;49.908;8.126;2023-10-08T03:38:59;6.10;;;2.33;;
81396;SDS011;70852;49.908;8.126;2023-10-08T03:41:38;5.18;;;2.05;;
81396;SDS011;70852;49.908;8.126;2023-10-08T03:44:05;6.05;;;2.08;;
81396;SDS011;70852;49.908;8.126;2023-10-08T03:46:35;6.10;;;2.42;;
81396;SDS011;70852;49.908;8.126;2023-10-08T03:49:04;4.97;;;2.20;;
81396;SDS011;70852;49.908;8.126;2023-10-08T03:51:42;5.50;;;2.50;;
81396;SDS011;70852;49.908;8.126;2023-10-08T03:54:09;7.38;;;2.72;;
81396;SDS011;70852;49.908;8.126;2023-10-08T03:56:35;7.60;;;2.38;;
81396;SDS011;70852;49.908;8.126;2023-10-08T03:59:02;6.25;;;3.00;;
81396;SDS011;70852;49.908;8.126;2023-10-08T04:01:45;5.57;;;2.38;;
81396;SDS011;70852;49.908;8.126;2023-10-08T04:04:13;7.35;;;2.50;;
81396;SDS011;70852;49.908;8.126;2023-10-08T04:06:41;4.72;;;2.17;;
81396;SDS011;70852;49.908;8.126;2023-10-08T04:09:14;7.60;;;2.80;;
81396;SDS011;70852;49.908;8.126;2023-10-08T04:11:47;7.50;;;2.22;;
81396;SDS011;70852;49.908;8.126;2023-10-08T04:14:12;7.03;;;2.58;;
81396;SDS011;70852;49.908;8.126;2023-10-08T04:16:41;4.28;;;2.13;;
81396;SDS011;70852;49.908;8.126;2023-10-08T04:19:09;7.10;;;2.67;;
81396;SDS011;70852;49.908;8.126;2023-10-08T04:21:35;6.50;;;2.50;;
81396;SDS011;70852;49.908;8.126;2023-10-08T04:24:07;4.60;;;2.30;;
81396;SDS011;70852;49.908;8.126;2023-10-08T04:26:34;6.07;;;2.22;;
81396;SDS011;70852;49.908;8.126;2023-10-08T04:29:05;6.55;;;2.80;;
81396;SDS011;70852;49.908;8.126;2023-10-08T04:31:35;4.45;;;2.33;;
81396;SDS011;70852;49.908;8.126;2023-10-08T04:34:08;7.03;;;2.10;;
81396;SDS011;70852;49.908;8.126;2023-10-08T04:36:47;6.50;;;2.20;;
81396;SDS011;70852;49.908;8.126;2023-10-08T04:39:26;7.18;;;2.70;;
81396;SDS011;70852;49.908;8.126;2023-10-08T04:42:03;5.00;;;2.00;;
81396;SDS011;70852;49.908;8.126;2023-10-08T04:44:35;4.55;;;2.20;;
81396;SDS011;70852;49.908;8.126;2023-10-08T04:47:04;6.05;;;2.67;;
81396;SDS011;70852;49.908;8.126;2023-10-08T04:49:31;6.07;;;2.50;;
81396;SDS011;70852;49.908;8.126;2023-10-08T04:51:59;5.10;;;2.08;;
81396;SDS011;70852;49.908;8.126;2023-10-08T04:54:30;5.88;;;2.40;;
81396;SDS011;70852;49.908;8.126;2023-10-08T04:57:01;7.03;;;2.50;;
81396;SDS011;70852;49.908;8.126;2023-10-08T04:59:31;7.22;;;2.42;;
81396;SDS011;70852;49.908;8.126;2023-10-08T05:02:01;5.93;;;2.30;;
81396;SDS011;70852;49.908;8.126;2023-10-08T05:04:54;5.47;;;2.17;;
81396;SDS011;70852;49.908;8.126;2023-10-08T05:07:35;4.50;;;1.98;;
81396;SDS011;70852;49.908;8.126;2023-10-08T05:10:12;5.75;;;2.55;;
81396;SDS011;70852;49.908;8.126;2023-10-08T05:12:49;4.88;;;2.38;;
81396;SDS011;70852;49.908;8.126;2023-10-08T05:15:29;6.30;;;2.50;;
81396;SDS011;70852;49.908;8.126;2023-10-08T05:18:15;4.22;;;1.95;;
81396;SDS011;70852;49.908;8.126;2023-10-08T05:20:43;5.70;;;2.47;;
81396;SDS011;70852;49.908;8.126;2023-10-08T05:23:17;6.30;;;2.55;;
81396;SDS011;70852;49.908;8.126;2023-10-08T05:25:52;5.38;;;2.50;;
81396;SDS011;70852;49.908;8.126;2023-10-08T05:28:26;8.90;;;2.45;;
81396;SDS011;70852;49.908;8.126;2023-10-08T05:30:55;5.90;;;2.20;;
81396;SDS011;70852;49.908;8.126;2023-10-08T05:33:56;7.72;;;2.20;;
81396;SDS011;70852;49.908;8.126;2023-10-08T05:36:42;5.32;;;2.30;;
81396;SDS011;70852;49.908;8.126;2023-10-08T05:39:26;5.63;;;2.17;;
81396;SDS011;70852;49.908;8.126;2023-10-08T05:42:07;7.32;;;2.55;;
81396;SDS011;70852;49.908;8.126;2023-10-08T05:44:45;3.97;;;2.15;;
81396;SDS011;70852;49.908;8.126;2023-10-08T05:47:32;5.95;;;2.42;;
81396;SDS011;70852;49.908;8.126;2023-10-08T05:49:57;5.82;;;2.13;;
81396;SDS011;70852;49.908;8.126;2023-10-08T05:52:42;6.97;;;2.60;;
81396;SDS011;70852;49.908;8.126;2023-10-08T05:55:22;6.97;;;2.60;;
81396;SDS011;70852;49.908;8.126;2023-10-08T05:58:05;6.70;;;2.40;;
81396;SDS011;70852;49.908;8.126;2023-10-08T06:00:44;7.32;;;2.58;;
81396;SDS011;70852;49.908;8.126;2023-10-08T06:03:36;6.65;;;2.42;;
81396;SDS011;70852;49.908;8.126;2023-10-08T06:06:12;6.15;;;2.53;;
81396;SDS011;70852;49.908;8.126;2023-10-08T06:08:38;7.07;;;2.50;;
81396;SDS011;70852;49.908;8.126;2023-10-08T06:11:15;6.57;;;2.50;;
81396;SDS011;70852;49.908;8.126;2023-10-08T06:14:01;6.28;;;2.60;;
81396;SDS011;70852;49.908;8.126;2023-10-08T06:16:28;5.70;;;2.65;;
81396;SDS011;70852;49.908;8.126;2023-10-08T06:19:06;6.47;;;2.25;;
81396;SDS011;70852;49.908;8.126;2023-10-08T06:21:31;9.55;;;2.53;;
81396;SDS011;70852;49.908;8.126;2023-10-08T06:23:59;4.88;;;2.35;;
81396;SDS011;70852;49.908;8.126;2023-10-08T06:26:27;5.30;;;2.28;;
81396;SDS011;70852;49.908;8.126;2023-10-08T06:28:56;6.40;;;2.47;;
81396;SDS011;70852;49.908;8.126;2023-10-08T06:31:23;5.38;;;2.40;;
81396;SDS011;70852;49.908;8.126;2023-10-08T06:33:50;6.55;;;2.25;;
81396;SDS011;70852;49.908;8.126;2023-10-08T06:36:15;6.30;;;2.35;;
81396;SDS011;70852;49.908;8.126;2023-10-08T06:38:49;7.05;;;2.45;;
81396;SDS011;70852;49.908;8.126;2023-10-08T06:41:17;7.28;;;2.42;;
81396;SDS011;70852;49.908;8.126;2023-10-08T06:43:46;6.00;;;2.58;;
81396;SDS011;70852;49.908;8.126;2023-10-08T06:46:37;8.45;;;3.35;;
81396;SDS011;70852;49.908;8.126;2023-10-08T06:49:03;5.70;;;2.60;;
81396;SDS011;70852;49.908;8.126;2023-10-08T06:51:36;6.10;;;2.72;;
81396;SDS011;70852;49.908;8.126;2023-10-08T06:54:02;4.85;;;2.30;;
81396;SDS011;70852;49.908;8.126;2023-10-08T06:56:38;4.80;;;2.50;;
81396;SDS011;70852;49.908;8.126;2023-10-08T06:59:03;7.63;;;2.60;;
81396;SDS011;70852;49.908;8.126;2023-10-08T07:01:30;6.50;;;2.55;;
81396;SDS011;70852;49.908;8.126;2023-10-08T07:04:06;7.80;;;2.65;;
81396;SDS011;70852;49.908;8.126;2023-10-08T07:06:37;6.32;;;2.47;;
81396;SDS011;70852;49.908;8.126;2023-10-08T07:09:04;6.10;;;2.33;;
81396;SDS011;70852;49.908;8.126;2023-10-08T07:11:33;6.82;;;2.60;;
81396;SDS011;70852;49.908;8.126;2023-10-08T07:14:05;6.15;;;2.38;;
81396;SDS011;70852;49.908;8.126;2023-10-08T07:16:35;7.68;;;2.28;;
81396;SDS011;70852;49.908;8.126;2023-10-08T07:19:01;7.50;;;2.50;;
81396;SDS011;70852;49.908;8.126;2023-10-08T07:21:40;7.13;;;2.35;;
81396;SDS011;70852;49.908;8.126;2023-10-08T07:24:19;4.78;;;2.15;;
81396;SDS011;70852;49.908;8.126;2023-10-08T07:26:47;6.80;;;2.65;;
81396;SDS011;70852;49.908;8.126;2023-10-08T07:29:14;5.85;;;2.78;;
81396;SDS011;70852;49.908;8.126;2023-10-08T07:31:46;6.38;;;2.63;;
81396;SDS011;70852;49.908;8.126;2023-10-08T07:34:17;6.57;;;2.40;;
81396;SDS011;70852;49.908;8.126;2023-10-08T07:36:45;6.28;;;2.40;;
81396;SDS011;70852;49.908;8.126;2023-10-08T07:39:17;5.40;;;2.33;;
81396;SDS011;70852;49.908;8.126;2023-10-08T07:41:56;4.80;;;2.38;;
81396;SDS011;70852;49.908;8.126;2023-10-08T07:44:23;5.97;;;2.33;;
81396;SDS011;70852;49.908;8.126;2023-10-08T07:46:53;6.43;;;2.53;;
81396;SDS011;70852;49.908;8.126;2023-10-08T07:49:22;7.47;;;2.40;;
81396;SDS011;70852;49.908;8.126;2023-10-08T07:51:48;6.05;;;2.45;;
81396;SDS011;70852;49.908;8.126;2023-10-08T07:56:44;7.63;;;2.65;;
81396;SDS011;70852;49.908;8.126;2023-10-08T07:59:12;7.50;;;2.42;;
81396;SDS011;70852;49.908;8.126;2023-10-08T08:01:39;7.10;;;2.70;;
81396;SDS011;70852;49.908;8.126;2023-10-08T08:04:07;6.80;;;2.25;;
81396;SDS011;70852;49.908;8.126;2023-10-08T08:06:35;6.78;;;2.33;;
81396;SDS011;70852;49.908;8.126;2023-10-08T08:09:02;5.30;;;2.28;;
81396;SDS011;70852;49.908;8.126;2023-10-08T08:11:46;5.18;;;2.08;;
81396;SDS011;70852;49.908;8.126;2023-10-08T08:14:13;4.93;;;2.22;;
81396;SDS011;70852;49.908;8.126;2023-10-08T08:16:42;7.00;;;2.22;;
81396;SDS011;70852;49.908;8.126;2023-10-08T08:19:13;5.70;;;2.63;;
81396;SDS011;70852;49.908;8.126;2023-10-08T08:21:43;6.78;;;2.50;;
81396;SDS011;70852;49.908;8.126;2023-10-08T08:24:13;5.80;;;2.13;;
81396;SDS011;70852;49.908;8.126;2023-10-08T08:26:50;4.93;;;2.20;;
81396;SDS011;70852;49.908;8.126;2023-10-08T08:29:27;7.03;;;2.55;;
81396;SDS011;70852;49.908;8.126;2023-10-08T08:31:53;7.28;;;2.42;;
81396;SDS011;70852;49.908;8.126;2023-10-08T08:34:18;5.30;;;2.38;;
81396;SDS011;70852;49.908;8.126;2023-10-08T08:36:46;6.40;;;2.50;;
81396;SDS011;70852;49.908;8.126;2023-10-08T08:39:14;5.28;;;2.38;;
81396;SDS011;70852;49.908;8.126;2023-10-08T08:42:00;6.93;;;2.55;;
81396;SDS011;70852;49.908;8.126;2023-10-08T08:44:27;8.25;;;2.72;;
81396;SDS011;70852;49.908;8.126;2023-10-08T08:47:00;7.93;;;2.30;;
81396;SDS011;70852;49.908;8.126;2023-10-08T08:49:29;8.10;;;2.92;;
81396;SDS011;70852;49.908;8.126;2023-10-08T08:51:59;6.75;;;2.58;;
81396;SDS011;70852;49.908;8.126;2023-10-08T08:54:26;6.15;;;2.50;;
81396;SDS011;70852;49.908;8.126;2023-10-08T08:56:55;6.90;;;3.00;;
81396;SDS011;70852;49.908;8.126;2023-10-08T08:59:21;7.88;;;2.65;;
81396;SDS011;70852;49.908;8.126;2023-10-08T09:01:50;6.85;;;2.80;;
81396;SDS011;70852;49.908;8.126;2023-10-08T09:04:21;6.35;;;2.42;;
81396;SDS011;70852;49.908;8.126;2023-10-08T09:06:54;6.55;;;2.47;;
81396;SDS011;70852;49.908;8.126;2023-10-08T09:09:31;6.93;;;2.60;;
81396;SDS011;70852;49.908;8.126;2023-10-08T09:11:57;6.80;;;2.25;;
81396;SDS011;70852;49.908;8.126;2023-10-08T09:14:23;7.35;;;2.42;;
81396;SDS011;70852;49.908;8.126;2023-10-08T09:16:50;5.63;;;2.40;;
81396;SDS011;70852;49.908;8.126;2023-10-08T09:19:19;6.35;;;2.50;;
81396;SDS011;70852;49.908;8.126;2023-10-08T09:21:59;9.65;;;3.05;;
81396;SDS011;70852;49.908;8.126;2023-10-08T09:24:28;7.20;;;2.60;;
81396;SDS011;70852;49.908;8.126;2023-10-08T09:26:56;7.32;;;2.45;;
81396;SDS011;70852;49.908;8.126;2023-10-08T09:29:23;6.47;;;2.78;;
81396;SDS011;70852;49.908;8.126;2023-10-08T09:31:58;10.50;;;3.05;;
81396;SDS011;70852;49.908;8.126;2023-10-08T09:34:28;5.60;;;2.45;;
81396;SDS011;70852;49.908;8.126;2023-10-08T09:36:59;6.80;;;2.28;;
81396;SDS011;70852;49.908;8.126;2023-10-08T09:39:28;6.03;;;2.45;;
81396;SDS011;70852;49.908;8.126;2023-10-08T09:42:02;7.00;;;2.33;;
81396;SDS011;70852;49.908;8.126;2023-10-08T09:44:39;6.18;;;2.53;;
81396;SDS011;70852;49.908;8.126;2023-10-08T09:47:08;5.72;;;2.53;;
81396;SDS011;70852;49.908;8.126;2023-10-08T09:49:40;5.28;;;2.92;;
81396;SDS011;70852;49.908;8.126;2023-10-08T09:52:10;6.18;;;2.75;;
81396;SDS011;70852;49.908;8.126;2023-10-08T09:54:42;6.68;;;2.83;;
81396;SDS011;70852;49.908;8.126;2023-10-08T09:57:18;5.72;;;2.83;;
81396;SDS011;70852;49.908;8.126;2023-10-08T09:59:45;5.75;;;3.00;;
81396;SDS011;70852;49.908;8.126;2023-10-08T10:02:14;5.72;;;2.70;;
81396;SDS011;70852;49.908;8.126;2023-10-08T10:04:44;6.95;;;2.83;;
81396;SDS011;70852;49.908;8.126;2023-10-08T10:07:10;5.65;;;2.55;;
81396;SDS011;70852;49.908;8.126;2023-10-08T10:09:44;7.25;;;2.88;;
81396;SDS011;70852;49.908;8.126;2023-10-08T10:12:11;6.22;;;2.97;;
81396;SDS011;70852;49.908;8.126;2023-10-08T10:14:47;6.55;;;2.72;;
81396;SDS011;70852;49.908;8.126;2023-10-08T10:17:14;5.60;;;2.65;;
81396;SDS011;70852;49.908;8.126;2023-10-08T10:19:48;5.18;;;2.42;;
81396;SDS011;70852;49.908;8.126;2023-10-08T10:22:26;6.03;;;2.53;;
81396;SDS011;70852;49.908;8.126;2023-10-08T10:24:59;8.27;;;2.47;;
81396;SDS011;70852;49.908;8.126;2023-10-08T10:27:29;6.15;;;2.70;;
81396;SDS011;70852;49.908;8.126;2023-10-08T10:30:02;7.25;;;3.20;;
81396;SDS011;70852;49.908;8.126;2023-10-08T10:32:33;7.32;;;3.08;;
81396;SDS011;70852;49.908;8.126;2023-10-08T10:35:02;6.78;;;3.05;;
81396;SDS011;70852;49.908;8.126;2023-10-08T10:37:30;6.07;;;2.63;;
81396;SDS011;70852;49.908;8.126;2023-10-08T10:40:07;6.05;;;2.53;;
81396;SDS011;70852;49.908;8.126;2023-10-08T10:42:40;9.40;;;3.00;;
81396;SDS011;70852;49.908;8.126;2023-10-08T10:45:16;6.20;;;2.67;;
81396;SDS011;70852;49.908;8.126;2023-10-08T10:48:23;7.13;;;3.47;;
81396;SDS011;70852;49.908;8.126;2023-10-08T10:50:50;7.53;;;3.15;;
81396;SDS011;70852;49.908;8.126;2023-10-08T10:56:11;7.72;;;3.17;;
81396;SDS011;70852;49.908;8.126;2023-10-08T10:58:45;7.93;;;3.78;;
81396;SDS011;70852;49.908;8.126;2023-10-08T11:01:12;7.65;;;4.13;;
81396;SDS011;70852;49.908;8.126;2023-10-08T11:03:53;8.10;;;4.18;;
81396;SDS011;70852;49.908;8.126;2023-10-08T11:06:22;8.40;;;4.97;;
81396;SDS011;70852;49.908;8.126;2023-10-08T11:08:50;8.85;;;5.18;;
81396;SDS011;70852;49.908;8.126;2023-10-08T11:11:17;9.23;;;4.25;;
81396;SDS011;70852;49.908;8.126;2023-10-08T11:13:43;8.00;;;4.45;;
81396;SDS011;70852;49.908;8.126;2023-10-08T11:16:19;9.60;;;4.15;;
81396;SDS011;70852;49.908;8.126;2023-10-08T11:18:48;7.45;;;3.83;;
81396;SDS011;70852;49.908;8.126;2023-10-08T11:21:18;7.78;;;3.67;;
81396;SDS011;70852;49.908;8.126;2023-10-08T11:23:56;6.82;;;2.95;;
81396;SDS011;70852;49.908;8.126;2023-10-08T11:26:24;8.00;;;3.60;;
81396;SDS011;70852;49.908;8.126;2023-10-08T11:29:00;8.35;;;3.40;;
81396;SDS011;70852;49.908;8.126;2023-10-08T11:31:28;6.97;;;3.10;;
81396;SDS011;70852;49.908;8.126;2023-10-08T11:33:58;7.10;;;3.08;;
81396;SDS011;70852;49.908;8.126;2023-10-08T11:36:36;9.82;;;3.47;;
81396;SDS011;70852;49.908;8.126;2023-10-08T11:39:14;7.68;;;3.78;;
81396;SDS011;70852;49.908;8.126;2023-10-08T11:41:57;6.20;;;3.08;;
81396;SDS011;70852;49.908;8.126;2023-10-08T11:44:52;7.28;;;3.40;;
81396;SDS011;70852;49.908;8.126;2023-10-08T11:47:17;7.07;;;3.20;;
81396;SDS011;70852;49.908;8.126;2023-10-08T11:49:46;9.05;;;3.33;;
81396;SDS011;70852;49.908;8.126;2023-10-08T11:54:41;7.60;;;3.13;;
81396;SDS011;70852;49.908;8.126;2023-10-08T11:57:09;7.82;;;3.25;;
81396;SDS011;70852;49.908;8.126;2023-10-08T11:59:36;7.72;;;2.80;;
81396;SDS011;70852;49.908;8.126;2023-10-08T12:02:06;7.55;;;3.28;;
81396;SDS011;70852;49.908;8.126;2023-10-08T12:04:32;9.05;;;4.25;;
81396;SDS011;70852;49.908;8.126;2023-10-08T12:07:01;8.15;;;3.05;;
81396;SDS011;70852;49.908;8.126;2023-10-08T12:09:32;9.15;;;3.75;;
81396;SDS011;70852;49.908;8.126;2023-10-08T12:12:03;6.30;;;2.75;;
81396;SDS011;70852;49.908;8.126;2023-10-08T12:14:36;7.07;;;3.55;;
81396;SDS011;70852;49.908;8.126;2023-10-08T12:17:02;7.88;;;3.08;;
81396;SDS011;70852;49.908;8.126;2023-10-08T12:19:36;8.75;;;3.40;;
81396;SDS011;70852;49.908;8.126;2023-10-08T12:22:01;7.63;;;3.70;;
81396;SDS011;70852;49.908;8.126;2023-10-08T12:24:28;9.57;;;3.72;;
81396;SDS011;70852;49.908;8.126;2023-10-08T12:26:53;9.05;;;3.55;;
81396;SDS011;70852;49.908;8.126;2023-10-08T12:29:21;6.18;;;3.03;;
81396;SDS011;70852;49.908;8.126;2023-10-08T12:31:52;8.27;;;3.75;;
81396;SDS011;70852;49.908;8.126;2023-10-08T12:34:20;9.00;;;3.03;;
81396;SDS011;70852;49.908;8.126;2023-10-08T12:36:50;9.55;;;3.08;;
81396;SDS011;70852;49.908;8.126;2023-10-08T12:39:15;7.22;;;3.03;;
81396;SDS011;70852;49.908;8.126;2023-10-08T12:41:41;6.82;;;3.28;;
81396;SDS011;70852;49.908;8.126;2023-10-08T12:44:09;7.63;;;3.20;;
81396;SDS011;70852;49.908;8.126;2023-10-08T12:46:35;8.68;;;2.50;;
81396;SDS011;70852;49.908;8.126;2023-10-08T12:49:01;6.75;;;2.70;;
81396;SDS011;70852;49.908;8.126;2023-10-08T12:51:27;9.35;;;3.22;;
81396;SDS011;70852;49.908;8.126;2023-10-08T12:53:58;7.95;;;3.22;;
81396;SDS011;70852;49.908;8.126;2023-10-08T12:56:31;7.40;;;2.70;;
81396;SDS011;70852;49.908;8.126;2023-10-08T12:59:01;7.13;;;2.83;;
81396;SDS011;70852;49.908;8.126;2023-10-08T13:01:31;9.95;;;5.20;;
81396;SDS011;70852;49.908;8.126;2023-10-08T13:03:57;7.90;;;2.63;;
81396;SDS011;70852;49.908;8.126;2023-10-08T13:06:26;8.05;;;2.88;;
81396;SDS011;70852;49.908;8.126;2023-10-08T13:08:56;8.60;;;3.13;;
81396;SDS011;70852;49.908;8.126;2023-10-08T13:11:25;6.43;;;2.95;;
81396;SDS011;70852;49.908;8.126;2023-10-08T13:13:57;7.82;;;2.65;;
81396;SDS011;70852;49.908;8.126;2023-10-08T13:16:23;6.72;;;2.67;;
81396;SDS011;70852;49.908;8.126;2023-10-08T13:18:50;9.52;;;3.03;;
81396;SDS011;70852;49.908;8.126;2023-10-08T13:21:16;6.85;;;2.90;;
81396;SDS011;70852;49.908;8.126;2023-10-08T13:23:43;7.60;;;3.13;;
81396;SDS011;70852;49.908;8.126;2023-10-08T13:26:14;6.07;;;2.80;;
81396;SDS011;70852;49.908;8.126;2023-10-08T13:28:42;10.30;;;3.30;;
81396;SDS011;70852;49.908;8.126;2023-10-08T13:31:08;6.47;;;2.80;;
81396;SDS011;70852;49.908;8.126;2023-10-08T13:33:40;8.07;;;3.75;;
81396;SDS011;70852;49.908;8.126;2023-10-08T13:36:10;7.40;;;2.70;;
81396;SDS011;70852;49.908;8.126;2023-10-08T13:38:38;6.38;;;2.97;;
81396;SDS011;70852;49.908;8.126;2023-10-08T13:41:05;7.45;;;2.88;;
81396;SDS011;70852;49.908;8.126;2023-10-08T13:43:40;6.60;;;3.20;;
81396;SDS011;70852;49.908;8.126;2023-10-08T13:46:06;8.07;;;2.92;;
81396;SDS011;70852;49.908;8.126;2023-10-08T13:48:38;9.13;;;2.90;;
81396;SDS011;70852;49.908;8.126;2023-10-08T13:51:05;6.38;;;3.17;;
81396;SDS011;70852;49.908;8.126;2023-10-08T13:53:36;10.32;;;3.30;;
81396;SDS011;70852;49.908;8.126;2023-10-08T13:56:02;7.55;;;3.08;;
81396;SDS011;70852;49.908;8.126;2023-10-08T13:58:29;5.82;;;2.85;;
81396;SDS011;70852;49.908;8.126;2023-10-08T14:00:56;8.20;;;2.50;;
81396;SDS011;70852;49.908;8.126;2023-10-08T14:03:22;7.38;;;2.70;;
81396;SDS011;70852;49.908;8.126;2023-10-08T14:05:48;6.05;;;2.80;;
81396;SDS011;70852;49.908;8.126;2023-10-08T14:08:16;9.73;;;2.83;;
81396;SDS011;70852;49.908;8.126;2023-10-08T14:10:45;5.88;;;3.08;;
81396;SDS011;70852;49.908;8.126;2023-10-08T14:15:44;8.40;;;3.90;;
81396;SDS011;70852;49.908;8.126;2023-10-08T14:18:20;11.00;;;3.65;;
81396;SDS011;70852;49.908;8.126;2023-10-08T14:20:51;6.75;;;3.05;;
81396;SDS011;70852;49.908;8.126;2023-10-08T14:23:22;7.85;;;3.25;;
81396;SDS011;70852;49.908;8.126;2023-10-08T14:25:50;6.68;;;3.67;;
81396;SDS011;70852;49.908;8.126;2023-10-08T14:28:28;6.18;;;2.47;;
81396;SDS011;70852;49.908;8.126;2023-10-08T14:31:16;9.07;;;4.07;;
81396;SDS011;70852;49.908;8.126;2023-10-08T14:33:42;10.18;;;3.20;;
81396;SDS011;70852;49.908;8.126;2023-10-08T14:36:23;6.70;;;4.18;;
81396;SDS011;70852;49.908;8.126;2023-10-08T14:39:07;9.57;;;3.60;;
81396;SDS011;70852;49.908;8.126;2023-10-08T14:41:51;6.10;;;3.33;;
81396;SDS011;70852;49.908;8.126;2023-10-08T14:44:38;8.45;;;3.95;;
81396;SDS011;70852;49.908;8.126;2023-10-08T14:47:06;7.90;;;2.97;;
81396;SDS011;70852;49.908;8.126;2023-10-08T14:49:32;6.93;;;3.97;;
81396;SDS011;70852;49.908;8.126;2023-10-08T14:52:03;8.57;;;3.45;;
81396;SDS011;70852;49.908;8.126;2023-10-08T14:54:30;6.68;;;3.38;;
81396;SDS011;70852;49.908;8.126;2023-10-08T14:56:56;8.57;;;3.53;;
81396;SDS011;70852;49.908;8.126;2023-10-08T14:59:22;9.38;;;3.28;;
81396;SDS011;70852;49.908;8.126;2023-10-08T15:01:48;7.82;;;3.50;;
81396;SDS011;70852;49.908;8.126;2023-10-08T15:04:14;8.50;;;3.33;;
81396;SDS011;70852;49.908;8.126;2023-10-08T15:06:39;11.65;;;3.08;;
81396;SDS011;70852;49.908;8.126;2023-10-08T15:09:07;10.30;;;3.42;;
81396;SDS011;70852;49.908;8.126;2023-10-08T15:11:34;7.60;;;3.15;;
81396;SDS011;70852;49.908;8.126;2023-10-08T15:14:01;10.02;;;3.20;;
81396;SDS011;70852;49.908;8.126;2023-10-08T15:16:36;6.45;;;2.72;;
81396;SDS011;70852;49.908;8.126;2023-10-08T15:19:05;9.50;;;2.90;;
81396;SDS011;70852;49.908;8.126;2023-10-08T15:21:31;8.63;;;3.33;;